sensor_id;sensor_type;location;lat;lon;timestamp;pressure;altitude;pressure_sealevel;temperature;humidity
64340;BME280;63709;53.258;-8.814;2023-04-16T00:00:51;101953.66;;;13.85;100.00
64340;BME280;63709;53.258;-8.814;2023-04-16T00:03:16;101964.59;;;13.82;100.00
64340;BME280;63709;53.258;-8.814;2023-04-16T00:05:42;101937.13;;;13.78;100.00
64340;BME280;63709;53.258;-8.814;2023-04-16T00:08:08;101956.22;;;13.87;100.00
64340;BME280;63709;53.258;-8.814;2023-04-16T00:10:34;101968.16;;;13.95;100.00
64340;BME280;63709;53.258;-8.814;2023-04-16T00:12:59;101959.53;;;13.90;100.00
64340;BME280;63709;53.258;-8.814;2023-04-16T00:15:25;101967.09;;;13.98;100.00
64340;BME280;63709;53.258;-8.814;2023-04-16T00:17:52;101965.34;;;13.97;100.00
64340;BME280;63709;53.258;-8.814;2023-04-16T00:20:17;101972.44;;;13.98;100.00
64340;BME280;63709;53.258;-8.814;2023-04-16T00:22:44;101974.59;;;14.06;100.00
64340;BME280;63709;53.258;-8.814;2023-04-16T00:25:10;101962.78;;;13.95;100.00
64340;BME280;63709;53.258;-8.814;2023-04-16T00:27:36;101977.38;;;14.04;100.00
64340;BME280;63709;53.258;-8.814;2023-04-16T00:30:02;101963.00;;;13.92;100.00
64340;BME280;63709;53.258;-8.814;2023-04-16T00:32:29;101983.28;;;14.09;100.00
64340;BME280;63709;53.258;-8.814;2023-04-16T00:34:55;101970.38;;;14.01;100.00
64340;BME280;63709;53.258;-8.814;2023-04-16T00:37:20;101977.28;;;14.06;100.00
64340;BME280;63709;53.258;-8.814;2023-04-16T00:39:46;101971.88;;;14.18;100.00
64340;BME280;63709;53.258;-8.814;2023-04-16T00:42:12;101967.19;;;14.09;100.00
64340;BME280;63709;53.258;-8.814;2023-04-16T00:44:38;101968.56;;;14.02;100.00
64340;BME280;63709;53.258;-8.814;2023-04-16T00:47:04;101967.19;;;14.09;100.00
64340;BME280;63709;53.258;-8.814;2023-04-16T00:49:33;101966.06;;;14.12;100.00
64340;BME280;63709;53.258;-8.814;2023-04-16T00:52:05;101956.66;;;14.06;100.00
64340;BME280;63709;53.258;-8.814;2023-04-16T00:54:31;101971.78;;;14.07;100.00
64340;BME280;63709;53.258;-8.814;2023-04-16T00:56:59;101975.09;;;14.11;100.00
64340;BME280;63709;53.258;-8.814;2023-04-16T00:59:26;101971.09;;;14.16;100.00
64340;BME280;63709;53.258;-8.814;2023-04-16T01:01:52;101968.34;;;14.18;100.00
64340;BME280;63709;53.258;-8.814;2023-04-16T01:04:18;101946.63;;;14.08;100.00
64340;BME280;63709;53.258;-8.814;2023-04-16T01:06:44;101952.56;;;14.13;100.00
64340;BME280;63709;53.258;-8.814;2023-04-16T01:09:10;101954.06;;;14.17;100.00
64340;BME280;63709;53.258;-8.814;2023-04-16T01:11:37;101968.44;;;14.16;100.00
64340;BME280;63709;53.258;-8.814;2023-04-16T01:14:03;101963.31;;;14.13;100.00
64340;BME280;63709;53.258;-8.814;2023-04-16T01:16:28;101960.38;;;14.16;100.00
64340;BME280;63709;53.258;-8.814;2023-04-16T01:18:55;101971.53;;;14.23;100.00
64340;BME280;63709;53.258;-8.814;2023-04-16T01:21:22;101971.75;;;14.20;100.00
64340;BME280;63709;53.258;-8.814;2023-04-16T01:23:47;101976.34;;;14.31;100.00
64340;BME280;63709;53.258;-8.814;2023-04-16T01:26:13;101976.34;;;14.31;100.00
64340;BME280;63709;53.258;-8.814;2023-04-16T01:28:39;101961.91;;;14.20;100.00
64340;BME280;63709;53.258;-8.814;2023-04-16T01:31:05;101965.66;;;14.18;100.00
64340;BME280;63709;53.258;-8.814;2023-04-16T01:33:32;101979.78;;;14.33;100.00
64340;BME280;63709;53.258;-8.814;2023-04-16T01:35:57;101973.56;;;14.32;100.00
64340;BME280;63709;53.258;-8.814;2023-04-16T01:38:23;101978.19;;;14.30;100.00
64340;BME280;63709;53.258;-8.814;2023-04-16T01:40:49;101979.13;;;14.42;100.00
64340;BME280;63709;53.258;-8.814;2023-04-16T01:43:14;101967.72;;;14.38;100.00
64340;BME280;63709;53.258;-8.814;2023-04-16T01:45:41;101972.38;;;14.36;100.00
64340;BME280;63709;53.258;-8.814;2023-04-16T01:48:07;101968.84;;;14.36;100.00
64340;BME280;63709;53.258;-8.814;2023-04-16T01:50:33;101973.09;;;14.38;100.00
64340;BME280;63709;53.258;-8.814;2023-04-16T01:53:00;101978.16;;;14.43;100.00
64340;BME280;63709;53.258;-8.814;2023-04-16T01:55:30;101969.47;;;14.39;100.00
64340;BME280;63709;53.258;-8.814;2023-04-16T01:57:56;101980.72;;;14.44;100.00
64340;BME280;63709;53.258;-8.814;2023-04-16T02:00:21;101981.28;;;14.49;100.00
64340;BME280;63709;53.258;-8.814;2023-04-16T02:02:48;101980.00;;;14.55;100.00
64340;BME280;63709;53.258;-8.814;2023-04-16T02:05:19;101986.22;;;14.56;100.00
64340;BME280;63709;53.258;-8.814;2023-04-16T02:07:45;101972.47;;;14.47;100.00
64340;BME280;63709;53.258;-8.814;2023-04-16T02:10:11;101966.97;;;14.49;100.00
64340;BME280;63709;53.258;-8.814;2023-04-16T02:12:38;101981.13;;;14.64;100.00
64340;BME280;63709;53.258;-8.814;2023-04-16T02:15:04;101974.47;;;14.57;100.00
64340;BME280;63709;53.258;-8.814;2023-04-16T02:17:29;101986.72;;;14.61;100.00
64340;BME280;63709;53.258;-8.814;2023-04-16T02:19:55;101976.31;;;14.56;100.00
64340;BME280;63709;53.258;-8.814;2023-04-16T02:22:21;101989.31;;;14.62;100.00
64340;BME280;63709;53.258;-8.814;2023-04-16T02:24:47;101986.28;;;14.67;100.00
64340;BME280;63709;53.258;-8.814;2023-04-16T02:27:15;101970.50;;;14.62;100.00
64340;BME280;63709;53.258;-8.814;2023-04-16T02:29:40;101980.19;;;14.65;100.00
64340;BME280;63709;53.258;-8.814;2023-04-16T02:32:07;101986.19;;;14.68;100.00
64340;BME280;63709;53.258;-8.814;2023-04-16T02:34:33;101979.53;;;14.61;100.00
64340;BME280;63709;53.258;-8.814;2023-04-16T02:37:00;101982.22;;;14.61;100.00
64340;BME280;63709;53.258;-8.814;2023-04-16T02:39:27;101966.34;;;14.58;100.00
64340;BME280;63709;53.258;-8.814;2023-04-16T02:41:54;101970.50;;;14.62;100.00
64340;BME280;63709;53.258;-8.814;2023-04-16T02:44:20;101987.69;;;14.60;100.00
64340;BME280;63709;53.258;-8.814;2023-04-16T02:46:45;101979.75;;;14.58;100.00
64340;BME280;63709;53.258;-8.814;2023-04-16T02:49:12;101982.44;;;14.58;100.00
64340;BME280;63709;53.258;-8.814;2023-04-16T02:51:38;101977.88;;;14.71;100.00
64340;BME280;63709;53.258;-8.814;2023-04-16T02:54:03;101966.78;;;14.52;100.00
64340;BME280;63709;53.258;-8.814;2023-04-16T02:56:29;101961.69;;;14.60;100.00
64340;BME280;63709;53.258;-8.814;2023-04-16T02:58:54;101975.66;;;14.65;100.00
64340;BME280;63709;53.258;-8.814;2023-04-16T03:01:21;101962.78;;;14.58;100.00
64340;BME280;63709;53.258;-8.814;2023-04-16T03:03:46;101973.06;;;14.64;100.00
64340;BME280;63709;53.258;-8.814;2023-04-16T03:06:12;101978.72;;;14.72;100.00
64340;BME280;63709;53.258;-8.814;2023-04-16T03:08:37;101956.78;;;14.54;100.00
64340;BME280;63709;53.258;-8.814;2023-04-16T03:11:03;101973.47;;;14.70;100.00
64340;BME280;63709;53.258;-8.814;2023-04-16T03:13:29;101975.31;;;14.70;100.00
64340;BME280;63709;53.258;-8.814;2023-04-16T03:15:54;101946.66;;;14.58;100.00
64340;BME280;63709;53.258;-8.814;2023-04-16T03:18:21;101977.38;;;14.66;100.00
64340;BME280;63709;53.258;-8.814;2023-04-16T03:20:50;101964.56;;;14.70;100.00
64340;BME280;63709;53.258;-8.814;2023-04-16T03:23:16;101958.03;;;14.61;100.00
64340;BME280;63709;53.258;-8.814;2023-04-16T03:25:44;101980.34;;;14.74;100.00
64340;BME280;63709;53.258;-8.814;2023-04-16T03:28:12;101984.00;;;14.73;100.00
64340;BME280;63709;53.258;-8.814;2023-04-16T03:30:39;101985.38;;;14.79;100.00
64340;BME280;63709;53.258;-8.814;2023-04-16T03:33:05;101983.94;;;14.86;100.00
64340;BME280;63709;53.258;-8.814;2023-04-16T03:35:32;101975.78;;;14.88;100.00
64340;BME280;63709;53.258;-8.814;2023-04-16T03:37:58;101980.63;;;14.83;100.00
64340;BME280;63709;53.258;-8.814;2023-04-16T03:40:24;101979.31;;;14.88;100.00
64340;BME280;63709;53.258;-8.814;2023-04-16T03:42:50;101990.47;;;14.95;100.00
64340;BME280;63709;53.258;-8.814;2023-04-16T03:45:17;101971.03;;;14.91;100.00
64340;BME280;63709;53.258;-8.814;2023-04-16T03:47:44;101983.09;;;14.86;100.00
64340;BME280;63709;53.258;-8.814;2023-04-16T03:50:14;101995.50;;;14.99;100.00
64340;BME280;63709;53.258;-8.814;2023-04-16T03:52:40;101985.59;;;15.00;100.00
64340;BME280;63709;53.258;-8.814;2023-04-16T03:55:06;101997.00;;;15.04;100.00
64340;BME280;63709;53.258;-8.814;2023-04-16T03:57:32;101994.66;;;14.99;100.00
64340;BME280;63709;53.258;-8.814;2023-04-16T03:59:58;101983.31;;;14.83;100.00
64340;BME280;63709;53.258;-8.814;2023-04-16T04:02:24;101977.50;;;14.89;100.00
64340;BME280;63709;53.258;-8.814;2023-04-16T04:04:50;102003.44;;;15.01;100.00
64340;BME280;63709;53.258;-8.814;2023-04-16T04:07:15;101987.31;;;15.01;100.00
64340;BME280;63709;53.258;-8.814;2023-04-16T04:09:42;101985.84;;;14.97;100.00
64340;BME280;63709;53.258;-8.814;2023-04-16T04:12:08;101986.88;;;15.07;100.00
64340;BME280;63709;53.258;-8.814;2023-04-16T04:14:34;101997.28;;;15.12;100.00
64340;BME280;63709;53.258;-8.814;2023-04-16T04:17:04;101984.19;;;15.07;100.00
64340;BME280;63709;53.258;-8.814;2023-04-16T04:19:31;101989.97;;;15.14;100.00
64340;BME280;63709;53.258;-8.814;2023-04-16T04:21:59;101964.59;;;15.05;100.00
64340;BME280;63709;53.258;-8.814;2023-04-16T04:24:24;101987.13;;;15.15;100.00
64340;BME280;63709;53.258;-8.814;2023-04-16T04:26:51;101984.41;;;15.04;100.00
64340;BME280;63709;53.258;-8.814;2023-04-16T04:29:18;101987.38;;;15.12;100.00
64340;BME280;63709;53.258;-8.814;2023-04-16T04:31:44;101983.81;;;15.12;100.00
64340;BME280;63709;53.258;-8.814;2023-04-16T04:34:10;101983.72;;;15.13;100.00
64340;BME280;63709;53.258;-8.814;2023-04-16T04:36:35;101979.28;;;15.12;100.00
64340;BME280;63709;53.258;-8.814;2023-04-16T04:39:00;101986.63;;;15.10;100.00
64340;BME280;63709;53.258;-8.814;2023-04-16T04:41:26;101993.09;;;15.08;100.00
64340;BME280;63709;53.258;-8.814;2023-04-16T04:43:51;101986.88;;;15.07;100.00
64340;BME280;63709;53.258;-8.814;2023-04-16T04:46:17;101971.72;;;15.06;100.00
64340;BME280;63709;53.258;-8.814;2023-04-16T04:48:42;101994.13;;;15.18;100.00
64340;BME280;63709;53.258;-8.814;2023-04-16T04:51:08;101994.34;;;15.15;100.00
64340;BME280;63709;53.258;-8.814;2023-04-16T04:53:34;101984.69;;;15.12;100.00
64340;BME280;63709;53.258;-8.814;2023-04-16T04:56:00;101997.53;;;15.20;100.00
64340;BME280;63709;53.258;-8.814;2023-04-16T04:58:26;102002.28;;;15.16;100.00
64340;BME280;63709;53.258;-8.814;2023-04-16T05:00:52;101991.44;;;15.18;100.00
64340;BME280;63709;53.258;-8.814;2023-04-16T05:03:21;102000.81;;;15.12;100.00
64340;BME280;63709;53.258;-8.814;2023-04-16T05:05:48;101999.28;;;15.21;100.00
64340;BME280;63709;53.258;-8.814;2023-04-16T05:08:15;101997.53;;;15.20;100.00
64340;BME280;63709;53.258;-8.814;2023-04-16T05:10:41;102000.75;;;15.25;100.00
64340;BME280;63709;53.258;-8.814;2023-04-16T05:13:07;101989.19;;;15.12;100.00
64340;BME280;63709;53.258;-8.814;2023-04-16T05:15:33;101985.84;;;15.21;100.00
64340;BME280;63709;53.258;-8.814;2023-04-16T05:17:59;102010.56;;;15.37;100.00
64340;BME280;63709;53.258;-8.814;2023-04-16T05:20:26;101994.84;;;15.20;100.00
64340;BME280;63709;53.258;-8.814;2023-04-16T05:22:51;102005.56;;;15.33;100.00
64340;BME280;63709;53.258;-8.814;2023-04-16T05:25:17;102003.09;;;15.30;100.00
64340;BME280;63709;53.258;-8.814;2023-04-16T05:27:43;102021.59;;;15.45;100.00
64340;BME280;63709;53.258;-8.814;2023-04-16T05:30:09;102011.44;;;15.38;100.00
64340;BME280;63709;53.258;-8.814;2023-04-16T05:32:35;102012.78;;;15.32;100.00
64340;BME280;63709;53.258;-8.814;2023-04-16T05:35:01;102007.38;;;15.32;100.00
64340;BME280;63709;53.258;-8.814;2023-04-16T05:37:26;102025.63;;;15.40;100.00
64340;BME280;63709;53.258;-8.814;2023-04-16T05:39:52;101996.47;;;15.22;100.00
64340;BME280;63709;53.258;-8.814;2023-04-16T05:42:18;102007.44;;;15.19;100.00
64340;BME280;63709;53.258;-8.814;2023-04-16T05:44:43;102029.19;;;15.40;100.00
64340;BME280;63709;53.258;-8.814;2023-04-16T05:47:08;102026.94;;;15.34;100.00
64340;BME280;63709;53.258;-8.814;2023-04-16T05:49:35;102039.53;;;15.34;100.00
64340;BME280;63709;53.258;-8.814;2023-04-16T05:52:02;102031.59;;;15.32;100.00
64340;BME280;63709;53.258;-8.814;2023-04-16T05:54:28;102018.84;;;15.23;100.00
64340;BME280;63709;53.258;-8.814;2023-04-16T05:56:56;102037.47;;;15.37;100.00
64340;BME280;63709;53.258;-8.814;2023-04-16T05:59:22;102039.31;;;15.37;100.00
64340;BME280;63709;53.258;-8.814;2023-04-16T06:01:49;102037.63;;;15.36;100.00
64340;BME280;63709;53.258;-8.814;2023-04-16T06:04:15;102055.09;;;15.41;100.00
64340;BME280;63709;53.258;-8.814;2023-04-16T06:06:42;102035.59;;;15.27;100.00
64340;BME280;63709;53.258;-8.814;2023-04-16T06:09:08;102059.50;;;15.42;100.00
64340;BME280;63709;53.258;-8.814;2023-04-16T06:11:34;102048.75;;;15.42;100.00
64340;BME280;63709;53.258;-8.814;2023-04-16T06:14:00;102069.09;;;15.46;100.00
64340;BME280;63709;53.258;-8.814;2023-04-16T06:16:28;102065.19;;;15.51;100.00
64340;BME280;63709;53.258;-8.814;2023-04-16T06:18:54;102054.63;;;15.36;100.00
64340;BME280;63709;53.258;-8.814;2023-04-16T06:21:20;102075.25;;;15.60;100.00
64340;BME280;63709;53.258;-8.814;2023-04-16T06:23:46;102065.06;;;15.52;100.00
64340;BME280;63709;53.258;-8.814;2023-04-16T06:26:12;102056.22;;;15.39;100.00
64340;BME280;63709;53.258;-8.814;2023-04-16T06:28:37;102064.06;;;15.53;100.00
64340;BME280;63709;53.258;-8.814;2023-04-16T06:31:03;102065.50;;;15.46;100.00
64340;BME280;63709;53.258;-8.814;2023-04-16T06:33:29;102089.56;;;15.60;100.00
64340;BME280;63709;53.258;-8.814;2023-04-16T06:35:55;102060.63;;;15.40;100.00
64340;BME280;63709;53.258;-8.814;2023-04-16T06:38:20;102085.38;;;15.56;100.00
64340;BME280;63709;53.258;-8.814;2023-04-16T06:40:47;102081.56;;;15.47;100.00
64340;BME280;63709;53.258;-8.814;2023-04-16T06:43:14;102070.56;;;15.51;100.00
64340;BME280;63709;53.258;-8.814;2023-04-16T06:45:40;102074.78;;;15.42;100.00
64340;BME280;63709;53.258;-8.814;2023-04-16T06:48:06;102087.34;;;15.54;100.00
64340;BME280;63709;53.258;-8.814;2023-04-16T06:50:31;102095.06;;;15.59;100.00
64340;BME280;63709;53.258;-8.814;2023-04-16T06:52:59;102090.03;;;15.54;100.00
64340;BME280;63709;53.258;-8.814;2023-04-16T06:55:26;102098.75;;;15.58;100.00
64340;BME280;63709;53.258;-8.814;2023-04-16T06:57:51;102098.59;;;15.59;100.00
64340;BME280;63709;53.258;-8.814;2023-04-16T07:00:17;102094.84;;;15.62;100.00
64340;BME280;63709;53.258;-8.814;2023-04-16T07:02:43;102098.13;;;15.54;100.00
64340;BME280;63709;53.258;-8.814;2023-04-16T07:05:08;102087.34;;;15.54;100.00
64340;BME280;63709;53.258;-8.814;2023-04-16T07:07:40;102090.41;;;15.61;100.00
64340;BME280;63709;53.258;-8.814;2023-04-16T07:10:06;102103.00;;;15.73;100.00
64340;BME280;63709;53.258;-8.814;2023-04-16T07:12:32;102109.50;;;15.82;100.00
64340;BME280;63709;53.258;-8.814;2023-04-16T07:14:59;102110.47;;;15.81;100.00
64340;BME280;63709;53.258;-8.814;2023-04-16T07:17:27;102123.22;;;15.90;100.00
64340;BME280;63709;53.258;-8.814;2023-04-16T07:19:52;102125.31;;;15.97;100.00
64340;BME280;63709;53.258;-8.814;2023-04-16T07:22:18;102108.91;;;15.89;100.00
64340;BME280;63709;53.258;-8.814;2023-04-16T07:24:44;102130.03;;;16.07;100.00
64340;BME280;63709;53.258;-8.814;2023-04-16T07:27:09;102112.63;;;16.00;100.00
64340;BME280;63709;53.258;-8.814;2023-04-16T07:29:37;102112.47;;;16.01;100.00
64340;BME280;63709;53.258;-8.814;2023-04-16T07:32:03;102123.03;;;16.04;100.00
64340;BME280;63709;53.258;-8.814;2023-04-16T07:34:28;102116.56;;;16.07;100.00
64340;BME280;63709;53.258;-8.814;2023-04-16T07:36:54;102124.00;;;16.03;100.00
64340;BME280;63709;53.258;-8.814;2023-04-16T07:39:19;102120.47;;;16.03;100.00
64340;BME280;63709;53.258;-8.814;2023-04-16T07:41:51;102112.16;;;16.06;100.00
64340;BME280;63709;53.258;-8.814;2023-04-16T07:44:16;102115.47;;;16.09;100.00
64340;BME280;63709;53.258;-8.814;2023-04-16T07:46:42;102120.72;;;16.11;100.00
64340;BME280;63709;53.258;-8.814;2023-04-16T07:49:08;102132.38;;;16.23;100.00
64340;BME280;63709;53.258;-8.814;2023-04-16T07:51:33;102135.44;;;16.29;100.00
64340;BME280;63709;53.258;-8.814;2023-04-16T07:53:58;102132.53;;;16.32;100.00
64340;BME280;63709;53.258;-8.814;2023-04-16T07:56:24;102129.69;;;16.34;100.00
64340;BME280;63709;53.258;-8.814;2023-04-16T07:58:50;102145.16;;;16.43;100.00
64340;BME280;63709;53.258;-8.814;2023-04-16T08:01:16;102138.53;;;16.47;100.00
64340;BME280;63709;53.258;-8.814;2023-04-16T08:03:42;102152.03;;;16.58;100.00
64340;BME280;63709;53.258;-8.814;2023-04-16T08:06:08;102158.13;;;16.60;100.00
64340;BME280;63709;53.258;-8.814;2023-04-16T08:08:34;102146.75;;;16.57;100.00
64340;BME280;63709;53.258;-8.814;2023-04-16T08:11:01;102145.88;;;16.56;100.00
64340;BME280;63709;53.258;-8.814;2023-04-16T08:13:28;102140.88;;;16.52;100.00
64340;BME280;63709;53.258;-8.814;2023-04-16T08:15:55;102162.06;;;16.56;100.00
64340;BME280;63709;53.258;-8.814;2023-04-16T08:18:21;102167.69;;;16.53;100.00
64340;BME280;63709;53.258;-8.814;2023-04-16T08:20:47;102166.47;;;16.57;100.00
64340;BME280;63709;53.258;-8.814;2023-04-16T08:23:12;102172.75;;;16.58;100.00
64340;BME280;63709;53.258;-8.814;2023-04-16T08:25:38;102152.13;;;16.45;100.00
64340;BME280;63709;53.258;-8.814;2023-04-16T08:28:04;102155.44;;;16.49;100.00
64340;BME280;63709;53.258;-8.814;2023-04-16T08:30:30;102161.22;;;16.56;100.00
64340;BME280;63709;53.258;-8.814;2023-04-16T08:32:56;102141.09;;;16.49;100.00
64340;BME280;63709;53.258;-8.814;2023-04-16T08:35:22;102155.09;;;16.65;100.00
64340;BME280;63709;53.258;-8.814;2023-04-16T08:37:48;102156.00;;;16.77;100.00
64340;BME280;63709;53.258;-8.814;2023-04-16T08:40:15;102132.16;;;16.59;100.00
64340;BME280;63709;53.258;-8.814;2023-04-16T08:42:47;102164.69;;;16.80;100.00
64340;BME280;63709;53.258;-8.814;2023-04-16T08:45:18;102151.06;;;16.82;100.00
64340;BME280;63709;53.258;-8.814;2023-04-16T08:47:46;102158.69;;;16.77;100.00
64340;BME280;63709;53.258;-8.814;2023-04-16T08:50:14;102157.94;;;16.75;100.00
64340;BME280;63709;53.258;-8.814;2023-04-16T08:53:00;102146.44;;;16.84;100.00
64340;BME280;63709;53.258;-8.814;2023-04-16T08:55:44;102162.00;;;17.03;100.00
64340;BME280;63709;53.258;-8.814;2023-04-16T08:58:17;102155.84;;;17.12;100.00
64340;BME280;63709;53.258;-8.814;2023-04-16T09:00:44;102161.47;;;17.20;100.00
64340;BME280;63709;53.258;-8.814;2023-04-16T09:03:16;102152.75;;;17.16;100.00
64340;BME280;63709;53.258;-8.814;2023-04-16T09:05:46;102148.72;;;17.22;100.00
64340;BME280;63709;53.258;-8.814;2023-04-16T09:08:14;102154.72;;;17.26;100.00
64340;BME280;63709;53.258;-8.814;2023-04-16T09:10:40;102163.78;;;17.36;100.00
64340;BME280;63709;53.258;-8.814;2023-04-16T09:13:05;102164.63;;;17.36;100.00
64340;BME280;63709;53.258;-8.814;2023-04-16T09:15:32;102157.25;;;17.38;100.00
64340;BME280;63709;53.258;-8.814;2023-04-16T09:18:00;102150.00;;;17.39;100.00
64340;BME280;63709;53.258;-8.814;2023-04-16T09:20:31;102164.69;;;17.57;100.00
64340;BME280;63709;53.258;-8.814;2023-04-16T09:22:57;102157.09;;;17.51;100.00
64340;BME280;63709;53.258;-8.814;2023-04-16T09:25:24;102157.56;;;17.56;100.00
64340;BME280;63709;53.258;-8.814;2023-04-16T09:27:50;102165.13;;;17.74;100.00
64340;BME280;63709;53.258;-8.814;2023-04-16T09:30:23;102164.38;;;17.83;100.00
64340;BME280;63709;53.258;-8.814;2023-04-16T09:32:51;102155.81;;;17.78;100.00
64340;BME280;63709;53.258;-8.814;2023-04-16T09:35:18;102163.00;;;17.88;100.00
64340;BME280;63709;53.258;-8.814;2023-04-16T09:37:54;102172.72;;;17.91;100.00
64340;BME280;63709;53.258;-8.814;2023-04-16T09:40:25;102158.00;;;17.84;100.00
64340;BME280;63709;53.258;-8.814;2023-04-16T09:42:56;102171.78;;;18.02;100.00
64340;BME280;63709;53.258;-8.814;2023-04-16T09:45:23;102171.25;;;18.08;100.00
64340;BME280;63709;53.258;-8.814;2023-04-16T09:47:50;102180.56;;;18.15;100.00
64340;BME280;63709;53.258;-8.814;2023-04-16T09:50:17;102184.06;;;18.27;100.00
64340;BME280;63709;53.258;-8.814;2023-04-16T09:52:48;102178.91;;;18.24;100.00
64340;BME280;63709;53.258;-8.814;2023-04-16T09:55:21;102180.69;;;18.34;100.00
64340;BME280;63709;53.258;-8.814;2023-04-16T09:57:57;102179.25;;;18.51;100.00
64340;BME280;63709;53.258;-8.814;2023-04-16T10:00:23;102174.44;;;18.55;100.00
64340;BME280;63709;53.258;-8.814;2023-04-16T10:03:02;102186.56;;;18.40;100.00
64340;BME280;63709;53.258;-8.814;2023-04-16T10:05:28;102189.84;;;18.64;100.00
64340;BME280;63709;53.258;-8.814;2023-04-16T10:07:59;102171.50;;;18.68;100.00
64340;BME280;63709;53.258;-8.814;2023-04-16T10:10:26;102178.53;;;18.80;100.00
64340;BME280;63709;53.258;-8.814;2023-04-16T10:12:59;102190.88;;;18.94;100.00
64340;BME280;63709;53.258;-8.814;2023-04-16T10:15:25;102181.91;;;18.93;100.00
64340;BME280;63709;53.258;-8.814;2023-04-16T10:17:52;102182.97;;;19.12;100.00
64340;BME280;63709;53.258;-8.814;2023-04-16T10:20:18;102174.19;;;19.29;100.00
64340;BME280;63709;53.258;-8.814;2023-04-16T10:22:44;102177.75;;;19.29;100.00
64340;BME280;63709;53.258;-8.814;2023-04-16T10:25:10;102168.50;;;19.42;100.00
64340;BME280;63709;53.258;-8.814;2023-04-16T10:27:38;102166.97;;;19.58;100.00
64340;BME280;63709;53.258;-8.814;2023-04-16T10:30:07;102178.28;;;19.73;100.00
64340;BME280;63709;53.258;-8.814;2023-04-16T10:32:34;102174.69;;;19.82;100.00
64340;BME280;63709;53.258;-8.814;2023-04-16T10:35:01;102166.00;;;19.89;100.00
64340;BME280;63709;53.258;-8.814;2023-04-16T10:37:30;102166.44;;;19.94;100.00
64340;BME280;63709;53.258;-8.814;2023-04-16T10:39:57;102176.00;;;19.88;100.00
64340;BME280;63709;53.258;-8.814;2023-04-16T10:42:24;102170.56;;;20.17;100.00
64340;BME280;63709;53.258;-8.814;2023-04-16T10:44:50;102177.81;;;20.36;100.00
64340;BME280;63709;53.258;-8.814;2023-04-16T10:47:15;102172.19;;;20.57;100.00
64340;BME280;63709;53.258;-8.814;2023-04-16T10:49:46;102157.03;;;20.64;100.00
64340;BME280;63709;53.258;-8.814;2023-04-16T10:52:14;102167.31;;;20.98;100.00
64340;BME280;63709;53.258;-8.814;2023-04-16T10:54:42;102150.53;;;21.12;100.00
64340;BME280;63709;53.258;-8.814;2023-04-16T10:57:16;102150.72;;;21.11;100.00
64340;BME280;63709;53.258;-8.814;2023-04-16T10:59:43;102167.25;;;21.45;100.00
64340;BME280;63709;53.258;-8.814;2023-04-16T11:02:18;102156.16;;;21.74;100.00
64340;BME280;63709;53.258;-8.814;2023-04-16T11:04:45;102160.28;;;22.14;100.00
64340;BME280;63709;53.258;-8.814;2023-04-16T11:12:13;102129.75;;;23.31;100.00
64340;BME280;63709;53.258;-8.814;2023-04-16T11:14:41;102142.81;;;23.86;100.00
64340;BME280;63709;53.258;-8.814;2023-04-16T11:17:08;102135.31;;;24.04;100.00
64340;BME280;63709;53.258;-8.814;2023-04-16T11:19:37;102157.63;;;24.49;100.00
64340;BME280;63709;53.258;-8.814;2023-04-16T11:22:03;102155.50;;;24.75;100.00
64340;BME280;63709;53.258;-8.814;2023-04-16T11:24:30;102132.91;;;24.90;100.00
64340;BME280;63709;53.258;-8.814;2023-04-16T11:27:01;102134.78;;;25.28;100.00
64340;BME280;63709;53.258;-8.814;2023-04-16T11:29:28;102129.03;;;25.69;100.00
64340;BME280;63709;53.258;-8.814;2023-04-16T11:31:55;102145.13;;;26.10;100.00
64340;BME280;63709;53.258;-8.814;2023-04-16T11:34:21;102145.63;;;26.51;100.00
64340;BME280;63709;53.258;-8.814;2023-04-16T11:36:47;102144.09;;;26.78;100.00
64340;BME280;63709;53.258;-8.814;2023-04-16T11:39:22;102143.53;;;26.83;100.00
64340;BME280;63709;53.258;-8.814;2023-04-16T11:41:49;102138.28;;;27.03;100.00
64340;BME280;63709;53.258;-8.814;2023-04-16T11:44:22;102146.00;;;27.29;100.00
64340;BME280;63709;53.258;-8.814;2023-04-16T11:46:57;102136.59;;;27.02;98.33
64340;BME280;63709;53.258;-8.814;2023-04-16T11:49:30;102124.31;;;26.98;100.00
64340;BME280;63709;53.258;-8.814;2023-04-16T11:51:57;102142.53;;;27.06;99.74
64340;BME280;63709;53.258;-8.814;2023-04-16T11:54:24;102130.19;;;26.95;96.50
64340;BME280;63709;53.258;-8.814;2023-04-16T11:56:51;102131.44;;;26.77;99.21
64340;BME280;63709;53.258;-8.814;2023-04-16T11:59:22;102140.41;;;26.86;94.64
64340;BME280;63709;53.258;-8.814;2023-04-16T12:01:50;102133.75;;;26.95;95.20
64340;BME280;63709;53.258;-8.814;2023-04-16T12:04:32;102125.38;;;26.97;100.00
64340;BME280;63709;53.258;-8.814;2023-04-16T12:07:10;102130.66;;;26.84;100.00
64340;BME280;63709;53.258;-8.814;2023-04-16T12:09:39;102120.16;;;27.02;99.65
64340;BME280;63709;53.258;-8.814;2023-04-16T12:12:29;102134.06;;;26.41;99.70
64340;BME280;63709;53.258;-8.814;2023-04-16T12:14:55;102119.41;;;26.93;100.00
64340;BME280;63709;53.258;-8.814;2023-04-16T12:17:25;102111.28;;;27.00;98.77
64340;BME280;63709;53.258;-8.814;2023-04-16T12:19:54;102129.13;;;27.25;95.33
64340;BME280;63709;53.258;-8.814;2023-04-16T12:22:34;102122.88;;;27.53;96.52
64340;BME280;63709;53.258;-8.814;2023-04-16T12:25:06;102119.22;;;27.67;88.08
64340;BME280;63709;53.258;-8.814;2023-04-16T12:30:07;102119.00;;;28.12;87.35
64340;BME280;63709;53.258;-8.814;2023-04-16T12:32:33;102132.84;;;28.32;85.29
64340;BME280;63709;53.258;-8.814;2023-04-16T12:34:59;102113.81;;;28.52;82.80
64340;BME280;63709;53.258;-8.814;2023-04-16T12:37:25;102117.22;;;28.32;76.53